M I D A S
Marine Information and Data Acquisition System
Tripno 528 of the Zeeleeuw from 2003-07-01 06:19:53 to 2003-07-01 10:12:15
Back to CruiseResearch ActivitiesStationsMapUnderway DataData graphs

EquipmentUnitsComments
TimeDGPSUTC
LatitudeDGPSDM.mWGS84
LongitudeDGPSDM.mWGS84
SpeedMeteo Stationm/sRelative wind speed
DirectionMeteo StationdegRelative wind direction
TemperatureMeteo Stationdeg CelciusAir temperature
PressureMeteo StationPaAtmospheric pressure
HumidityMeteo Station%Relative humidity
Missing or incorrect values are displayed as -999
Metereological data collected by the RV Zeeleeuw from 2003-07-01 06:19:53 to 2003-07-01 10:12:15
Time Latitude Longitude Speed Direction Temperature Pressure Humidity
2003-07-01 06:20 51°13.6 2°56.1 6.1 52 15.3 99970 82
2003-07-01 06:21 51°13.6 2°56.1 2.8 75 15.3 99970 82
2003-07-01 06:22 51°13.6 2°56.1 3 156 15.4 99970 82
2003-07-01 06:24 51°13.62 2°56.02 3.9 102 15.4 99970 82
2003-07-01 06:25 51°13.65 2°55.91 2.6 159 15.5 99970 82
2003-07-01 06:26 51°13.68 2°55.81 7.3 144 15.5 99970 82
2003-07-01 06:26 51°13.68 2°55.76 5 160 15.4 99980 81
2003-07-01 06:27 51°13.7 2°55.76 2.4 209 15.4 99970 81
2003-07-01 06:28 51°13.75 2°55.72 1 292 15.5 99970 82
2003-07-01 06:29 51°13.84 2°55.62 3.8 268 15.6 99970 82
2003-07-01 06:30 51°13.97 2°55.53 2.1 337 15.7 99970 82
2003-07-01 06:31 51°14.09 2°55.44 3.7 303 15.7 99970 81
2003-07-01 06:32 51°14.21 2°55.33 3.1 291 15.7 99970 81
2003-07-01 06:33 51°14.32 2°55.15 4.8 328 15.7 99970 81
2003-07-01 06:34 51°14.42 2°54.95 7.1 314 15.8 99960 80
2003-07-01 06:35 51°14.45 2°54.71 9.3 325 15.8 99960 81
2003-07-01 06:36 51°14.44 2°54.48 8.7 332 15.8 99940 81
2003-07-01 06:37 51°14.42 2°54.34 7.8 346 15.9 99950 81
2003-07-01 06:38 51°14.4 2°54.3 6.1 5 15.8 99960 80
2003-07-01 06:39 51°14.39 2°54.27 8.1 26 15.7 99970 81
2003-07-01 06:40 51°14.38 2°54.25 6.9 62 15.7 99950 82
2003-07-01 06:41 51°14.33 2°54.22 8.7 348 15.6 99950 82
2003-07-01 06:42 51°14.27 2°54.05 9.5 342 15.7 99940 83
2003-07-01 06:43 51°14.19 2°53.8 11.5 347 15.7 99930 82
2003-07-01 06:44 51°14.08 2°53.5 15 346 15.6 99920 82
2003-07-01 06:45 51°13.97 2°53.2 12.8 342 15.6 99920 82
2003-07-01 06:46 51°13.86 2°52.9 12.8 341 15.6 99920 82
2003-07-01 06:47 51°13.75 2°52.59 12.1 347 15.7 99920 82
2003-07-01 06:48 51°13.64 2°52.29 13.3 348 15.7 99930 82
2003-07-01 06:49 51°13.54 2°51.98 13.3 344 15.8 99920 82
2003-07-01 06:50 51°13.43 2°51.68 15.7 350 15.8 99910 82
2003-07-01 06:51 51°13.32 2°51.38 13.9 343 15.8 99900 82
2003-07-01 06:52 51°13.22 2°51.07 13 347 15.7 99890 81
2003-07-01 06:53 51°13.11 2°50.77 14.3 352 15.8 99890 81
2003-07-01 06:54 51°13 2°50.46 14.3 346 15.8 99890 81
2003-07-01 06:55 51°12.9 2°50.15 12.2 346 15.9 99900 82
2003-07-01 06:56 51°12.79 2°49.85 13.3 346 15.8 99900 81
2003-07-01 06:57 51°12.68 2°49.54 13.9 347 15.8 99900 82
2003-07-01 06:58 51°12.62 2°49.21 14 337 15.8 99890 81
2003-07-01 06:59 51°12.57 2°48.87 12.7 337 15.9 99890 81
2003-07-01 07:00 51°12.49 2°48.54 13.2 350 15.9 99890 81
2003-07-01 07:01 51°12.38 2°48.24 14.6 348 15.9 99910 81
2003-07-01 07:02 51°12.25 2°47.91 15.7 348 15.9 99910 81
2003-07-01 07:03 51°12.12 2°47.57 15.8 348 15.9 99890 81
2003-07-01 07:04 51°12 2°47.23 14.2 347 15.9 99890 81
2003-07-01 07:05 51°11.87 2°46.89 14.4 356 15.9 99890 81
2003-07-01 07:06 51°11.75 2°46.55 15 348 15.8 99900 81
2003-07-01 07:07 51°11.62 2°46.21 12.9 347 16 99890 82
2003-07-01 07:08 51°11.5 2°45.87 13.6 355 16 99900 82
2003-07-01 07:09 51°11.37 2°45.53 13.9 349 15.9 99900 81
2003-07-01 07:10 51°11.25 2°45.19 14.2 352 16 99900 81
2003-07-01 07:11 51°11.16 2°44.93 8.8 340 16 99910 80
2003-07-01 07:12 51°11.11 2°44.85 6.6 26 16 99940 81
2003-07-01 07:13 51°11.09 2°44.83 7.3 50 16 99950 80
2003-07-01 07:14 51°11.07 2°44.81 8 42 15.9 99950 81
2003-07-01 07:15 51°11.05 2°44.8 7.8 53 15.9 99940 81
2003-07-01 07:16 51°11.02 2°44.82 6 110 15.9 99930 81
2003-07-01 07:17 51°11.03 2°44.88 5 171 15.9 99950 82
2003-07-01 07:18 51°11.08 2°44.91 2.7 195 16.1 99950 82
2003-07-01 07:19 51°11.14 2°44.94 5.5 154 16.3 99950 82
2003-07-01 07:20 51°11.18 2°44.99 4.2 162 16.2 99950 80
2003-07-01 07:21 51°11.21 2°45.03 4.9 179 16.2 99950 81
2003-07-01 07:22 51°11.24 2°45.05 5.9 175 16.2 99950 81
2003-07-01 07:23 51°11.26 2°45.07 4.9 148 16.1 99950 80
2003-07-01 07:24 51°11.25 2°45.11 6.3 91 16.1 99940 80
2003-07-01 07:25 51°11.22 2°45.13 7.5 60 16.2 99940 80
2003-07-01 07:26 51°11.18 2°45.11 6.1 28 16.1 99940 80
2003-07-01 07:27 51°11.14 2°45.06 7.6 359 16.2 99940 81
2003-07-01 07:28 51°11.12 2°44.98 5.5 42 16.1 99940 80
2003-07-01 07:29 51°11.13 2°44.89 7.8 303 16.2 99950 80
2003-07-01 07:30 51°11.14 2°44.79 7.5 228 16.2 99950 80
2003-07-01 07:31 51°11.15 2°44.68 7.8 312 16.2 99950 80
2003-07-01 07:32 51°11.15 2°44.57 8.4 324 16.3 99930 80
2003-07-01 07:33 51°11.13 2°44.46 7.6 328 16.3 99930 80
2003-07-01 07:34 51°11.1 2°44.36 7.5 332 16.3 99930 79
2003-07-01 07:35 51°11.08 2°44.26 7.7 316 16.3 99920 80
2003-07-01 07:36 51°11.07 2°44.2 7.1 317 16.3 99940 79
2003-07-01 07:37 51°11.07 2°44.16 7.2 227 16.3 99940 79
2003-07-01 07:38 51°11.07 2°44.13 5.9 308 16.4 99940 80
2003-07-01 07:39 51°11.07 2°44.09 6.7 304 16.4 99940 79
2003-07-01 07:40 51°11.06 2°44.03 6.6 1 16.4 99940 79
2003-07-01 07:41 51°11.03 2°43.98 6.9 15 16.5 99930 79
2003-07-01 07:42 51°11 2°43.94 6.7 28 16.4 99930 79
2003-07-01 07:43 51°10.99 2°43.92 6.6 32 16.4 99930 79
2003-07-01 07:44 51°10.97 2°43.91 7.3 66 16.3 99930 79
2003-07-01 07:45 51°10.96 2°43.9 6.3 59 16.2 99930 78
2003-07-01 07:46 51°10.93 2°43.88 6.3 24 16.2 99930 79
2003-07-01 07:47 51°10.88 2°43.79 8.9 326 16.2 99930 79
2003-07-01 07:48 51°10.85 2°43.56 10.8 339 16.3 99900 80
2003-07-01 07:49 51°10.81 2°43.22 14.1 340 16.4 99890 79
2003-07-01 07:50 51°10.76 2°42.84 13.5 344 16.5 99880 78
2003-07-01 07:51 51°10.72 2°42.46 13.7 338 16.5 99870 78
2003-07-01 07:52 51°10.67 2°42.08 12.8 336 16.6 99890 78
2003-07-01 07:53 51°10.62 2°41.69 12.5 334 16.7 99890 78
2003-07-01 07:54 51°10.57 2°41.31 14.3 342 16.7 99890 78
2003-07-01 07:55 51°10.51 2°40.93 14.3 349 16.6 99880 77
2003-07-01 07:56 51°10.46 2°40.55 12 340 16.7 99880 77
2003-07-01 07:57 51°10.4 2°40.17 12.9 343 16.7 99880 77
2003-07-01 07:58 51°10.35 2°39.79 12 337 16.7 99880 77
2003-07-01 07:59 51°10.28 2°39.42 11.6 343 16.7 99880 77
2003-07-01 08:00 51°10.2 2°39.04 12.4 341 16.7 99870 78
2003-07-01 08:01 51°10.13 2°38.67 12.6 352 16.7 99880 78
2003-07-01 08:02 51°10.04 2°38.31 13.2 349 16.6 99880 78
2003-07-01 08:03 51°9.94 2°37.94 14.5 352 16.6 99870 78
2003-07-01 08:04 51°9.84 2°37.59 13.7 347 16.6 99870 78
2003-07-01 08:05 51°9.74 2°37.23 13.4 349 16.7 99880 77
2003-07-01 08:06 51°9.64 2°36.87 13.5 343 16.8 99880 78
2003-07-01 08:07 51°9.53 2°36.51 12.1 348 16.8 99880 78
2003-07-01 08:08 51°9.41 2°36.16 12.2 353 16.7 99880 77
2003-07-01 08:09 51°9.35 2°35.78 10 330 16.8 99870 77
2003-07-01 08:10 51°9.47 2°35.46 7.5 318 16.7 99900 77
2003-07-01 08:11 51°9.67 2°35.31 3.1 310 16.7 99910 77
2003-07-01 08:12 51°9.89 2°35.3 4.1 316 16.8 99920 77
2003-07-01 08:13 51°10.1 2°35.37 2.1 1 16.8 99920 77
2003-07-01 08:14 51°10.28 2°35.53 2.5 91 16.8 99920 77
2003-07-01 08:15 51°10.46 2°35.71 2.8 61 16.8 99920 77
2003-07-01 08:16 51°10.63 2°35.88 2.9 36 16.8 99910 77
2003-07-01 08:17 51°10.81 2°36.05 2.4 51 16.7 99910 77
2003-07-01 08:18 51°10.99 2°36.21 1.4 33 16.7 99910 77
2003-07-01 08:19 51°11.17 2°36.38 2 24 16.7 99910 78
2003-07-01 08:20 51°11.35 2°36.56 2.5 31 16.7 99910 78
2003-07-01 08:21 51°11.52 2°36.74 1.9 27 16.7 99910 77
2003-07-01 08:22 51°11.69 2°36.92 2.6 12 16.7 99910 77
2003-07-01 08:23 51°11.87 2°37.1 2 58 16.8 99910 78
2003-07-01 08:24 51°12.04 2°37.29 1.3 53 16.8 99910 78
2003-07-01 08:25 51°12.21 2°37.47 2.7 29 16.8 99910 78
2003-07-01 08:26 51°12.39 2°37.65 1.9 80 16.8 99910 78
2003-07-01 08:27 51°12.56 2°37.83 2.2 45 16.7 99910 77
2003-07-01 08:28 51°12.74 2°38.01 2.8 36 16.7 99900 77
2003-07-01 08:29 51°12.91 2°38.19 2.3 72 16.7 99900 78
2003-07-01 08:30 51°13.09 2°38.37 1.9 72 16.6 99900 77
2003-07-01 08:31 51°13.26 2°38.55 1.1 82 16.6 99900 77
2003-07-01 08:32 51°13.45 2°38.69 2.3 341 16.6 99900 77
2003-07-01 08:33 51°13.64 2°38.82 1.7 8 16.8 99890 78
2003-07-01 08:34 51°13.85 2°38.88 2.3 314 16.9 99890 78
2003-07-01 08:35 51°14.06 2°38.84 4.5 308 17 99890 77
2003-07-01 08:36 51°14.25 2°38.66 9 41 17 99880 77
2003-07-01 08:37 51°14.37 2°38.35 11 327 17 99870 76
2003-07-01 08:38 51°14.36 2°37.96 12.2 349 17.1 99860 76
2003-07-01 08:39 51°14.26 2°37.6 11.6 352 17 99860 76
2003-07-01 08:40 51°14.14 2°37.25 11.3 352 17 99860 77
2003-07-01 08:41 51°14.02 2°36.9 12.4 353 17 99860 77
2003-07-01 08:42 51°13.9 2°36.54 12.7 348 17 99850 77
2003-07-01 08:43 51°13.79 2°36.19 12.4 350 17 99840 77
2003-07-01 08:44 51°13.67 2°35.83 12.2 350 17 99850 77
2003-07-01 08:45 51°13.56 2°35.48 13.4 348 17 99840 77
2003-07-01 08:46 51°13.44 2°35.13 12.5 348 17 99840 77
2003-07-01 08:47 51°13.32 2°34.77 13.8 354 17 99840 76
2003-07-01 08:48 51°13.21 2°34.43 15.1 350 17 99840 77
2003-07-01 08:49 51°13.13 2°34.06 11.2 337 16.8 99820 78
2003-07-01 08:50 51°13.23 2°33.73 8.9 308 16.6 99850 80
2003-07-01 08:51 51°13.43 2°33.6 4.2 296 16.4 99860 81
2003-07-01 08:52 51°13.64 2°33.63 0.4 329 16.3 99880 81
2003-07-01 08:53 51°13.84 2°33.75 0.7 28 16.3 99880 82
2003-07-01 08:54 51°14.03 2°33.9 1.4 8 16.3 99870 83
2003-07-01 08:55 51°14.22 2°34.04 1.2 4 16.3 99870 83
2003-07-01 08:56 51°14.4 2°34.19 1 355 16.3 99870 83
2003-07-01 08:57 51°14.59 2°34.33 1.5 312 16.2 99870 84
2003-07-01 08:58 51°14.78 2°34.47 1.4 319 16.2 99880 84
2003-07-01 08:59 51°14.96 2°34.61 1.5 42 16.1 99870 84
2003-07-01 09:00 51°15.15 2°34.75 1.3 317 16.1 99880 84
2003-07-01 09:01 51°15.33 2°34.88 1.6 321 16.1 99880 84
2003-07-01 09:02 51°15.52 2°35.02 2.1 331 16 99870 84
2003-07-01 09:03 51°15.7 2°35.17 1.3 325 16 99880 85
2003-07-01 09:04 51°15.88 2°35.32 1.4 328 15.9 99880 85
2003-07-01 09:05 51°16.06 2°35.47 0.9 284 15.9 99880 85
2003-07-01 09:06 51°16.24 2°35.62 1.3 263 15.9 99890 85
2003-07-01 09:07 51°16.4 2°35.81 1.7 146 15.9 99880 85
2003-07-01 09:08 51°16.53 2°36.05 1.5 129 15.9 99890 86
2003-07-01 09:09 51°16.66 2°36.29 1.2 123 15.9 99880 86
2003-07-01 09:10 51°16.78 2°36.54 0.2 78 15.9 99890 87
2003-07-01 09:11 51°16.92 2°36.79 0.6 337 15.9 99890 87
2003-07-01 09:12 51°17.05 2°37.03 1.3 331 15.9 99890 88
2003-07-01 09:13 51°17.11 2°37.33 1.3 108 15.9 99880 88
2003-07-01 09:14 51°17.16 2°37.64 1 11 15.9 99880 88
2003-07-01 09:15 51°17.21 2°37.95 2.3 229 15.9 99870 89
2003-07-01 09:16 51°17.27 2°38.26 2.5 247 15.8 99870 89
2003-07-01 09:17 51°17.33 2°38.56 3.7 205 15.2 99860 87
2003-07-01 09:18 51°17.38 2°38.84 2.7 224 14.7 99870 87
2003-07-01 09:19 51°17.43 2°39.12 2.9 209 14.2 99880 85
2003-07-01 09:20 51°17.49 2°39.41 1.8 228 13.8 99880 84
2003-07-01 09:21 51°17.54 2°39.68 3.2 213 13.8 99880 85
2003-07-01 09:22 51°17.59 2°39.97 3.9 226 13.8 99880 85
2003-07-01 09:23 51°17.63 2°40.26 1.7 211 14 99870 86
2003-07-01 09:24 51°17.64 2°40.6 1.5 142 14.1 99870 86
2003-07-01 09:25 51°17.62 2°40.93 0.8 37 14.1 99880 86
2003-07-01 09:26 51°17.62 2°41.27 1.3 11 14.1 99870 85
2003-07-01 09:27 51°17.61 2°41.61 1.3 28 14.1 99870 85
2003-07-01 09:28 51°17.61 2°41.95 1.7 19 14.1 99870 83
2003-07-01 09:29 51°17.6 2°42.29 3.7 43 14.1 99870 82
2003-07-01 09:30 51°17.6 2°42.63 3.9 52 14.3 99870 80
2003-07-01 09:31 51°17.6 2°42.94 7.3 85 14.6 99880 78
2003-07-01 09:32 51°17.6 2°43.24 8.1 85 15.6 99860 83
2003-07-01 09:33 51°17.59 2°43.54 8.5 75 16.1 99860 84
2003-07-01 09:34 51°17.48 2°43.82 13.2 61 16.2 99830 84
2003-07-01 09:35 51°17.35 2°44.09 14.2 62 16.3 99830 83
2003-07-01 09:36 51°17.22 2°44.36 13 57 16.4 99820 84
2003-07-01 09:37 51°17.09 2°44.64 11.9 64 16.5 99810 83
2003-07-01 09:38 51°16.96 2°44.92 10.7 64 16.5 99830 83
2003-07-01 09:39 51°16.83 2°45.2 14.2 58 16.5 99810 83
2003-07-01 09:40 51°16.7 2°45.48 13.5 59 16.4 99830 82
2003-07-01 09:41 51°16.57 2°45.76 11.8 56 16.4 99820 82
2003-07-01 09:42 51°16.44 2°46.05 12.8 54 16.2 99830 81
2003-07-01 09:43 51°16.31 2°46.33 14.1 62 16.4 99830 81
2003-07-01 09:44 51°16.19 2°46.63 12.5 65 16.4 99830 81
2003-07-01 09:45 51°16.12 2°46.96 9 72 16.4 99830 81
2003-07-01 09:46 51°16.07 2°47.31 10.4 68 16.5 99830 81
2003-07-01 09:47 51°16 2°47.65 9.9 78 16.5 99830 81
2003-07-01 09:48 51°15.94 2°47.99 8.2 77 16.6 99830 81
2003-07-01 09:49 51°15.88 2°48.32 8.9 77 16.6 99840 81
2003-07-01 09:50 51°15.81 2°48.66 8.7 77 16.7 99830 81
2003-07-01 09:51 51°15.75 2°48.99 8.6 73 16.7 99830 81
2003-07-01 09:52 51°15.69 2°49.33 9.9 67 16.8 99830 81
2003-07-01 09:53 51°15.64 2°49.68 6.7 76 16.7 99830 81
2003-07-01 09:54 51°15.6 2°50.02 9.1 82 16.8 99830 81
2003-07-01 09:55 51°15.55 2°50.36 7.9 68 16.8 99830 81
2003-07-01 09:56 51°15.49 2°50.7 8.9 71 16.8 99840 81
2003-07-01 09:57 51°15.44 2°51.04 8.5 72 16.9 99830 81
2003-07-01 09:58 51°15.38 2°51.37 8.3 69 17 99830 81
2003-07-01 09:59 51°15.33 2°51.7 7.9 78 17.1 99830 80
2003-07-01 10:00 51°15.26 2°52.03 7.5 76 17.1 99840 80
2003-07-01 10:01 51°15.18 2°52.36 10.3 71 17.2 99830 80
2003-07-01 10:02 51°15.11 2°52.69 8.7 74 17.2 99820 79
2003-07-01 10:03 51°15.03 2°53.02 9.4 71 17.2 99820 77
2003-07-01 10:04 51°14.96 2°53.35 10.9 57 17.3 99830 78
2003-07-01 10:05 51°14.89 2°53.65 11.8 56 17.3 99820 78
2003-07-01 10:06 51°14.82 2°53.93 11.7 58 17.2 99820 78
2003-07-01 10:07 51°14.72 2°54.19 11.4 64 17.2 99820 78
2003-07-01 10:08 51°14.61 2°54.45 11.1 51 17.2 99820 78
2003-07-01 10:09 51°14.51 2°54.71 10.2 62 17.1 99820 77
2003-07-01 10:10 51°14.41 2°54.97 11.3 61 17.2 99820 77
2003-07-01 10:11 51°14.29 2°55.2 6.8 39 17.2 99830 76